sensor_id;sensor_type;location;lat;lon;timestamp;pressure;altitude;pressure_sealevel;temperature;humidity
29569;BME280;16501;51.462;14.346;2023-02-23T00:01:19;99986.81;;;4.26;100.00
29569;BME280;16501;51.462;14.346;2023-02-23T00:03:46;99981.28;;;4.26;100.00
29569;BME280;16501;51.462;14.346;2023-02-23T00:06:14;99976.59;;;4.23;100.00
29569;BME280;16501;51.462;14.346;2023-02-23T00:08:41;99961.94;;;4.06;100.00
29569;BME280;16501;51.462;14.346;2023-02-23T00:11:10;99979.13;;;4.17;100.00
29569;BME280;16501;51.462;14.346;2023-02-23T00:13:39;99977.56;;;4.16;100.00
29569;BME280;16501;51.462;14.346;2023-02-23T00:16:10;99970.47;;;4.15;100.00
29569;BME280;16501;51.462;14.346;2023-02-23T00:18:42;99971.31;;;4.12;100.00
29569;BME280;16501;51.462;14.346;2023-02-23T00:21:14;99972.53;;;4.11;100.00
29569;BME280;16501;51.462;14.346;2023-02-23T00:23:46;99965.19;;;4.04;100.00
29569;BME280;16501;51.462;14.346;2023-02-23T00:26:12;99969.41;;;4.09;100.00
29569;BME280;16501;51.462;14.346;2023-02-23T00:28:38;99949.16;;;3.95;100.00
29569;BME280;16501;51.462;14.346;2023-02-23T00:31:05;99976.72;;;4.03;100.00
29569;BME280;16501;51.462;14.346;2023-02-23T00:33:30;99951.31;;;3.88;100.00
29569;BME280;16501;51.462;14.346;2023-02-23T00:36:02;99963.13;;;3.92;100.00
29569;BME280;16501;51.462;14.346;2023-02-23T00:38:28;99964.22;;;3.94;100.00
29569;BME280;16501;51.462;14.346;2023-02-23T00:40:59;99955.66;;;3.89;100.00
29569;BME280;16501;51.462;14.346;2023-02-23T00:43:24;99936.66;;;3.71;100.00
29569;BME280;16501;51.462;14.346;2023-02-23T00:45:54;99944.38;;;3.80;100.00
29569;BME280;16501;51.462;14.346;2023-02-23T00:48:21;99930.44;;;3.67;100.00
29569;BME280;16501;51.462;14.346;2023-02-23T00:50:46;99949.88;;;3.83;100.00
29569;BME280;16501;51.462;14.346;2023-02-23T00:53:14;99947.75;;;3.71;100.00
29569;BME280;16501;51.462;14.346;2023-02-23T00:55:40;99978.28;;;3.87;100.00
29569;BME280;16501;51.462;14.346;2023-02-23T00:58:05;99963.09;;;3.75;100.00
29569;BME280;16501;51.462;14.346;2023-02-23T01:00:33;99960.44;;;3.72;100.00
29569;BME280;16501;51.462;14.346;2023-02-23T01:03:06;99974.97;;;3.76;100.00
29569;BME280;16501;51.462;14.346;2023-02-23T01:05:34;99970.66;;;3.75;100.00
29569;BME280;16501;51.462;14.346;2023-02-23T01:07:59;99954.88;;;3.72;100.00
29569;BME280;16501;51.462;14.346;2023-02-23T01:10:24;99963.88;;;3.76;100.00
29569;BME280;16501;51.462;14.346;2023-02-23T01:12:50;99967.88;;;3.75;100.00
29569;BME280;16501;51.462;14.346;2023-02-23T01:15:17;99962.84;;;3.70;100.00
29569;BME280;16501;51.462;14.346;2023-02-23T01:17:44;99959.22;;;3.73;100.00
29569;BME280;16501;51.462;14.346;2023-02-23T01:20:14;99963.19;;;3.72;100.00
29569;BME280;16501;51.462;14.346;2023-02-23T01:22:48;99958.16;;;3.67;100.00
29569;BME280;16501;51.462;14.346;2023-02-23T01:25:15;99964.41;;;3.71;100.00
29569;BME280;16501;51.462;14.346;2023-02-23T01:27:42;99962.00;;;3.73;100.00
29569;BME280;16501;51.462;14.346;2023-02-23T01:30:10;99960.09;;;3.70;100.00
29569;BME280;16501;51.462;14.346;2023-02-23T01:32:36;99954.63;;;3.66;100.00
29569;BME280;16501;51.462;14.346;2023-02-23T01:35:07;99963.19;;;3.72;100.00
29569;BME280;16501;51.462;14.346;2023-02-23T01:37:34;99946.41;;;3.63;100.00
29569;BME280;16501;51.462;14.346;2023-02-23T01:40:01;99921.75;;;3.48;100.00
29569;BME280;16501;51.462;14.346;2023-02-23T01:42:30;99923.00;;;3.47;100.00
29569;BME280;16501;51.462;14.346;2023-02-23T01:47:58;99950.38;;;3.62;100.00
29569;BME280;16501;51.462;14.346;2023-02-23T01:50:35;99946.41;;;3.63;100.00
29569;BME280;16501;51.462;14.346;2023-02-23T01:53:04;99937.75;;;3.61;100.00
29569;BME280;16501;51.462;14.346;2023-02-23T01:55:29;99937.75;;;3.61;100.00
29569;BME280;16501;51.462;14.346;2023-02-23T01:58:06;99925.94;;;3.56;100.00
29569;BME280;16501;51.462;14.346;2023-02-23T02:00:32;99891.53;;;3.37;100.00
29569;BME280;16501;51.462;14.346;2023-02-23T02:03:05;99922.72;;;3.58;100.00
29569;BME280;16501;51.462;14.346;2023-02-23T02:05:35;99922.31;;;3.59;100.00
29569;BME280;16501;51.462;14.346;2023-02-23T02:08:02;99921.63;;;3.55;100.00
29569;BME280;16501;51.462;14.346;2023-02-23T02:10:30;99905.06;;;3.35;100.00
29569;BME280;16501;51.462;14.346;2023-02-23T02:13:06;99918.84;;;3.55;100.00
29569;BME280;16501;51.462;14.346;2023-02-23T02:15:42;99875.59;;;3.25;100.00
29569;BME280;16501;51.462;14.346;2023-02-23T02:18:30;99895.53;;;3.36;100.00
29569;BME280;16501;51.462;14.346;2023-02-23T02:27:12;99901.69;;;3.44;100.00
29569;BME280;16501;51.462;14.346;2023-02-23T02:38:54;99901.00;;;3.40;100.00
29569;BME280;16501;51.462;14.346;2023-02-23T02:44:36;99893.97;;;3.35;100.00
29569;BME280;16501;51.462;14.346;2023-02-23T02:47:13;99896.31;;;3.37;100.00
29569;BME280;16501;51.462;14.346;2023-02-23T02:49:50;99903.44;;;3.38;100.00
29569;BME280;16501;51.462;14.346;2023-02-23T02:52:24;99893.97;;;3.35;100.00
29569;BME280;16501;51.462;14.346;2023-02-23T02:55:03;99897.09;;;3.37;100.00
29569;BME280;16501;51.462;14.346;2023-02-23T02:57:33;99890.94;;;3.30;100.00
29569;BME280;16501;51.462;14.346;2023-02-23T03:00:00;99894.06;;;3.32;100.00
29569;BME280;16501;51.462;14.346;2023-02-23T03:02:44;99895.16;;;3.34;100.00
29569;BME280;16501;51.462;14.346;2023-02-23T03:05:49;99888.25;;;3.26;100.00
29569;BME280;16501;51.462;14.346;2023-02-23T03:08:47;99892.41;;;3.34;100.00
29569;BME280;16501;51.462;14.346;2023-02-23T03:11:50;99894.41;;;3.34;100.00
29569;BME280;16501;51.462;14.346;2023-02-23T03:14:47;99886.16;;;3.30;100.00
29569;BME280;16501;51.462;14.346;2023-02-23T03:17:42;99888.50;;;3.32;100.00
29569;BME280;16501;51.462;14.346;2023-02-23T03:20:36;99883.16;;;3.25;100.00
29569;BME280;16501;51.462;14.346;2023-02-23T03:23:34;99883.22;;;3.21;100.00
29569;BME280;16501;51.462;14.346;2023-02-23T03:26:31;99874.81;;;3.08;100.00
29569;BME280;16501;51.462;14.346;2023-02-23T03:29:31;99880.72;;;3.10;100.00
29569;BME280;16501;51.462;14.346;2023-02-23T03:32:26;99878.19;;;3.16;100.00
29569;BME280;16501;51.462;14.346;2023-02-23T03:35:23;99862.59;;;3.06;100.00
29569;BME280;16501;51.462;14.346;2023-02-23T03:38:18;99868.22;;;3.02;100.00
29569;BME280;16501;51.462;14.346;2023-02-23T03:41:06;99888.06;;;3.17;100.00
29569;BME280;16501;51.462;14.346;2023-02-23T03:43:57;99814.72;;;2.72;100.00
29569;BME280;16501;51.462;14.346;2023-02-23T03:46:46;99868.75;;;2.97;100.00
29569;BME280;16501;51.462;14.346;2023-02-23T03:49:35;99868.41;;;2.95;100.00
29569;BME280;16501;51.462;14.346;2023-02-23T03:52:25;99876.63;;;2.98;100.00
29569;BME280;16501;51.462;14.346;2023-02-23T03:55:16;99872.03;;;2.92;100.00
29569;BME280;16501;51.462;14.346;2023-02-23T03:58:05;99874.69;;;2.95;100.00
29569;BME280;16501;51.462;14.346;2023-02-23T04:00:53;99865.06;;;2.83;100.00
29569;BME280;16501;51.462;14.346;2023-02-23T04:03:40;99868.56;;;2.88;100.00
29569;BME280;16501;51.462;14.346;2023-02-23T04:06:30;99855.72;;;2.77;100.00
29569;BME280;16501;51.462;14.346;2023-02-23T04:09:16;99838.06;;;2.71;100.00
29569;BME280;16501;51.462;14.346;2023-02-23T04:12:07;99825.66;;;2.59;100.00
29569;BME280;16501;51.462;14.346;2023-02-23T04:15:03;99861.88;;;2.85;100.00
29569;BME280;16501;51.462;14.346;2023-02-23T04:17:32;99863.03;;;2.88;100.00
29569;BME280;16501;51.462;14.346;2023-02-23T04:19:58;99866.56;;;2.88;100.00
29569;BME280;16501;51.462;14.346;2023-02-23T04:22:24;99838.06;;;2.71;100.00
29569;BME280;16501;51.462;14.346;2023-02-23T04:24:50;99829.06;;;2.67;100.00
29569;BME280;16501;51.462;14.346;2023-02-23T04:27:16;99857.56;;;2.84;100.00
29569;BME280;16501;51.462;14.346;2023-02-23T04:29:43;99840.97;;;2.64;100.00
29569;BME280;16501;51.462;14.346;2023-02-23T04:32:14;99862.81;;;2.78;100.00
29569;BME280;16501;51.462;14.346;2023-02-23T04:34:40;99855.72;;;2.77;100.00
29569;BME280;16501;51.462;14.346;2023-02-23T04:37:06;99856.56;;;2.74;100.00
29569;BME280;16501;51.462;14.346;2023-02-23T04:39:32;99852.44;;;2.82;100.00
29569;BME280;16501;51.462;14.346;2023-02-23T04:41:57;99853.66;;;2.81;100.00
29569;BME280;16501;51.462;14.346;2023-02-23T04:44:22;99821.41;;;2.55;100.00
29569;BME280;16501;51.462;14.346;2023-02-23T04:46:48;99834.94;;;2.69;100.00
29569;BME280;16501;51.462;14.346;2023-02-23T04:49:13;99848.97;;;2.78;100.00
29569;BME280;16501;51.462;14.346;2023-02-23T04:51:38;99852.16;;;2.77;100.00
29569;BME280;16501;51.462;14.346;2023-02-23T04:54:05;99841.88;;;2.77;100.00
29569;BME280;16501;51.462;14.346;2023-02-23T04:56:31;99838.31;;;2.77;100.00
29569;BME280;16501;51.462;14.346;2023-02-23T04:58:56;99836.50;;;2.70;100.00
29569;BME280;16501;51.462;14.346;2023-02-23T05:01:22;99842.03;;;2.70;100.00
29569;BME280;16501;51.462;14.346;2023-02-23T05:03:48;99805.66;;;2.52;100.00
29569;BME280;16501;51.462;14.346;2023-02-23T05:06:14;99807.56;;;2.55;100.00
29569;BME280;16501;51.462;14.346;2023-02-23T05:08:42;99847.75;;;2.79;100.00
29569;BME280;16501;51.462;14.346;2023-02-23T05:11:08;99837.97;;;2.75;100.00
29569;BME280;16501;51.462;14.346;2023-02-23T05:13:34;99830.59;;;2.68;100.00
29569;BME280;16501;51.462;14.346;2023-02-23T05:16:00;99812.94;;;2.62;100.00
29569;BME280;16501;51.462;14.346;2023-02-23T05:18:25;99841.28;;;2.86;100.00
29569;BME280;16501;51.462;14.346;2023-02-23T05:20:51;99810.00;;;2.53;100.00
29569;BME280;16501;51.462;14.346;2023-02-23T05:23:18;99834.94;;;2.69;100.00
29569;BME280;16501;51.462;14.346;2023-02-23T05:25:44;99825.84;;;2.69;100.00
29569;BME280;16501;51.462;14.346;2023-02-23T05:28:09;99838.31;;;2.77;100.00
29569;BME280;16501;51.462;14.346;2023-02-23T05:30:36;99821.00;;;2.73;100.00
29569;BME280;16501;51.462;14.346;2023-02-23T05:33:01;99814.00;;;2.68;100.00
29569;BME280;16501;51.462;14.346;2023-02-23T05:35:27;99717.34;;;2.04;100.00
29569;BME280;16501;51.462;14.346;2023-02-23T05:37:54;99840.34;;;2.93;100.00
29569;BME280;16501;51.462;14.346;2023-02-23T05:40:21;99832.34;;;2.78;100.00
29569;BME280;16501;51.462;14.346;2023-02-23T05:42:46;99848.28;;;2.91;100.00
29569;BME280;16501;51.462;14.346;2023-02-23T05:45:12;99850.13;;;2.97;100.00
29569;BME280;16501;51.462;14.346;2023-02-23T05:47:37;99853.69;;;2.98;100.00
29569;BME280;16501;51.462;14.346;2023-02-23T05:50:08;99833.41;;;2.85;100.00
29569;BME280;16501;51.462;14.346;2023-02-23T05:52:41;99850.28;;;2.90;100.00
29569;BME280;16501;51.462;14.346;2023-02-23T05:55:08;99825.63;;;2.79;100.00
29569;BME280;16501;51.462;14.346;2023-02-23T05:57:37;99863.97;;;2.97;100.00
29569;BME280;16501;51.462;14.346;2023-02-23T06:00:04;99858.09;;;2.95;100.00
29569;BME280;16501;51.462;14.346;2023-02-23T06:02:30;99842.50;;;2.85;100.00
29569;BME280;16501;51.462;14.346;2023-02-23T06:04:55;99840.16;;;2.83;100.00
29569;BME280;16501;51.462;14.346;2023-02-23T06:07:21;99853.31;;;2.96;100.00
29569;BME280;16501;51.462;14.346;2023-02-23T06:09:46;99831.22;;;2.76;100.00
29569;BME280;16501;51.462;14.346;2023-02-23T06:12:12;99859.28;;;2.94;100.00
29569;BME280;16501;51.462;14.346;2023-02-23T06:14:39;99830.59;;;2.68;100.00
29569;BME280;16501;51.462;14.346;2023-02-23T06:17:05;99856.59;;;2.91;100.00
29569;BME280;16501;51.462;14.346;2023-02-23T06:19:31;99847.00;;;2.79;100.00
29569;BME280;16501;51.462;14.346;2023-02-23T06:21:58;99859.03;;;2.89;100.00
29569;BME280;16501;51.462;14.346;2023-02-23T06:24:23;99832.44;;;2.75;100.00
29569;BME280;16501;51.462;14.346;2023-02-23T06:26:49;99836.25;;;2.81;100.00
29569;BME280;16501;51.462;14.346;2023-02-23T06:29:16;99857.41;;;2.91;100.00
29569;BME280;16501;51.462;14.346;2023-02-23T06:31:41;99830.31;;;2.82;100.00
29569;BME280;16501;51.462;14.346;2023-02-23T06:34:07;99845.53;;;2.91;100.00
29569;BME280;16501;51.462;14.346;2023-02-23T06:36:33;99855.75;;;2.94;100.00
29569;BME280;16501;51.462;14.346;2023-02-23T06:38:58;99854.19;;;2.93;100.00
29569;BME280;16501;51.462;14.346;2023-02-23T06:41:24;99858.44;;;2.97;100.00
29569;BME280;16501;51.462;14.346;2023-02-23T06:43:50;99846.25;;;2.95;100.00
29569;BME280;16501;51.462;14.346;2023-02-23T06:46:17;99841.38;;;2.82;100.00
29569;BME280;16501;51.462;14.346;2023-02-23T06:48:44;99863.03;;;3.04;100.00
29569;BME280;16501;51.462;14.346;2023-02-23T06:51:09;99868.56;;;3.04;100.00
29569;BME280;16501;51.462;14.346;2023-02-23T06:53:35;99854.47;;;2.98;100.00
29569;BME280;16501;51.462;14.346;2023-02-23T06:56:01;99867.38;;;3.05;100.00
29569;BME280;16501;51.462;14.346;2023-02-23T06:58:27;99868.16;;;3.06;100.00
29569;BME280;16501;51.462;14.346;2023-02-23T07:00:56;99873.25;;;3.07;100.00
29569;BME280;16501;51.462;14.346;2023-02-23T07:03:23;99873.19;;;3.11;100.00
29569;BME280;16501;51.462;14.346;2023-02-23T07:05:48;99869.97;;;3.12;100.00
29569;BME280;16501;51.462;14.346;2023-02-23T07:08:18;99881.31;;;3.18;100.00
29569;BME280;16501;51.462;14.346;2023-02-23T07:10:44;99880.88;;;3.19;100.00
29569;BME280;16501;51.462;14.346;2023-02-23T07:13:10;99817.75;;;2.78;100.00
29569;BME280;16501;51.462;14.346;2023-02-23T07:15:39;99880.53;;;3.17;100.00
29569;BME280;16501;51.462;14.346;2023-02-23T07:18:05;99869.44;;;3.01;100.00
29569;BME280;16501;51.462;14.346;2023-02-23T07:20:31;99878.63;;;3.14;100.00
29569;BME280;16501;51.462;14.346;2023-02-23T07:22:58;99842.16;;;2.83;100.00
29569;BME280;16501;51.462;14.346;2023-02-23T07:25:25;99857.50;;;3.04;100.00
29569;BME280;16501;51.462;14.346;2023-02-23T07:27:50;99858.63;;;3.07;100.00
29569;BME280;16501;51.462;14.346;2023-02-23T07:30:18;99886.50;;;3.16;100.00
29569;BME280;16501;51.462;14.346;2023-02-23T07:32:44;99877.94;;;3.27;100.00
29569;BME280;16501;51.462;14.346;2023-02-23T07:35:11;99852.50;;;3.15;100.00
29569;BME280;16501;51.462;14.346;2023-02-23T07:37:37;99838.97;;;3.01;100.00
29569;BME280;16501;51.462;14.346;2023-02-23T07:40:02;99843.81;;;3.13;100.00
29569;BME280;16501;51.462;14.346;2023-02-23T07:42:28;99845.72;;;3.16;100.00
29569;BME280;16501;51.462;14.346;2023-02-23T07:44:53;99885.91;;;3.41;100.00
29569;BME280;16501;51.462;14.346;2023-02-23T07:47:18;99879.50;;;3.44;100.00
29569;BME280;16501;51.462;14.346;2023-02-23T07:49:44;99876.22;;;3.49;100.00
29569;BME280;16501;51.462;14.346;2023-02-23T07:52:09;99880.03;;;3.55;100.00
29569;BME280;16501;51.462;14.346;2023-02-23T07:54:34;99864.69;;;3.51;100.00
29569;BME280;16501;51.462;14.346;2023-02-23T07:57:00;99856.38;;;3.51;100.00
29569;BME280;16501;51.462;14.346;2023-02-23T07:59:25;99847.63;;;3.52;100.00
29569;BME280;16501;51.462;14.346;2023-02-23T08:01:51;99881.69;;;3.69;100.00
29569;BME280;16501;51.462;14.346;2023-02-23T08:04:17;99855.34;;;3.61;100.00
29569;BME280;16501;51.462;14.346;2023-02-23T08:06:42;99882.41;;;3.86;100.00
29569;BME280;16501;51.462;14.346;2023-02-23T08:09:10;99886.22;;;3.92;100.00
29569;BME280;16501;51.462;14.346;2023-02-23T08:11:35;99853.38;;;3.74;100.00
29569;BME280;16501;51.462;14.346;2023-02-23T08:14:00;99878.06;;;4.02;100.00
29569;BME280;16501;51.462;14.346;2023-02-23T08:16:29;99883.84;;;4.07;100.00
29569;BME280;16501;51.462;14.346;2023-02-23T08:18:56;99881.66;;;4.15;100.00
29569;BME280;16501;51.462;14.346;2023-02-23T08:21:23;99886.25;;;4.22;100.00
29569;BME280;16501;51.462;14.346;2023-02-23T08:23:48;99851.53;;;4.01;100.00
29569;BME280;16501;51.462;14.346;2023-02-23T08:26:13;99885.63;;;4.30;100.00
29569;BME280;16501;51.462;14.346;2023-02-23T08:28:41;99878.63;;;4.39;100.00
29569;BME280;16501;51.462;14.346;2023-02-23T08:31:09;99857.84;;;4.30;100.00
29569;BME280;16501;51.462;14.346;2023-02-23T08:33:35;99880.75;;;4.47;100.00
29569;BME280;16501;51.462;14.346;2023-02-23T08:36:03;99859.56;;;4.41;100.00
29569;BME280;16501;51.462;14.346;2023-02-23T08:38:28;99868.47;;;4.61;100.00
29569;BME280;16501;51.462;14.346;2023-02-23T08:40:54;99868.25;;;4.68;100.00
29569;BME280;16501;51.462;14.346;2023-02-23T08:43:19;99853.69;;;4.64;100.00
29569;BME280;16501;51.462;14.346;2023-02-23T08:45:44;99884.72;;;4.88;100.00
29569;BME280;16501;51.462;14.346;2023-02-23T08:48:10;99869.38;;;4.84;100.00
29569;BME280;16501;51.462;14.346;2023-02-23T08:50:35;99856.94;;;5.01;100.00
29569;BME280;16501;51.462;14.346;2023-02-23T08:53:00;99879.53;;;5.16;100.00
29569;BME280;16501;51.462;14.346;2023-02-23T08:55:26;99881.84;;;5.31;100.00
29569;BME280;16501;51.462;14.346;2023-02-23T08:57:52;99856.94;;;5.27;100.00
29569;BME280;16501;51.462;14.346;2023-02-23T09:00:18;99864.47;;;5.39;100.00
29569;BME280;16501;51.462;14.346;2023-02-23T09:02:44;99866.22;;;5.59;100.00
29569;BME280;16501;51.462;14.346;2023-02-23T09:05:12;99863.09;;;5.70;100.00
29569;BME280;16501;51.462;14.346;2023-02-23T09:07:39;99873.88;;;5.80;100.00
29569;BME280;16501;51.462;14.346;2023-02-23T09:10:05;99876.06;;;5.85;100.00
29569;BME280;16501;51.462;14.346;2023-02-23T09:12:30;99877.75;;;5.96;100.00
29569;BME280;16501;51.462;14.346;2023-02-23T09:14:55;99859.91;;;5.93;100.00
29569;BME280;16501;51.462;14.346;2023-02-23T09:17:21;99887.22;;;6.20;100.00
29569;BME280;16501;51.462;14.346;2023-02-23T09:19:47;99878.94;;;6.30;100.00
29569;BME280;16501;51.462;14.346;2023-02-23T09:22:12;99856.38;;;6.37;100.00
29569;BME280;16501;51.462;14.346;2023-02-23T09:24:38;99884.94;;;6.72;100.00
29569;BME280;16501;51.462;14.346;2023-02-23T09:27:04;99882.09;;;6.94;100.00
29569;BME280;16501;51.462;14.346;2023-02-23T09:29:31;99875.47;;;7.01;100.00
29569;BME280;16501;51.462;14.346;2023-02-23T09:31:59;99886.00;;;7.38;100.00
29569;BME280;16501;51.462;14.346;2023-02-23T09:34:24;99881.41;;;7.53;100.00
29569;BME280;16501;51.462;14.346;2023-02-23T09:36:50;99867.13;;;7.51;100.00
29569;BME280;16501;51.462;14.346;2023-02-23T09:39:16;99845.44;;;7.55;100.00
29569;BME280;16501;51.462;14.346;2023-02-23T09:49:38;99885.03;;;8.27;100.00
29569;BME280;16501;51.462;14.346;2023-02-23T09:52:15;99874.50;;;8.22;100.00
29569;BME280;16501;51.462;14.346;2023-02-23T09:54:43;99855.38;;;8.30;100.00
29569;BME280;16501;51.462;14.346;2023-02-23T09:57:21;99884.28;;;8.45;100.00
29569;BME280;16501;51.462;14.346;2023-02-23T09:59:49;99885.34;;;8.48;100.00
29569;BME280;16501;51.462;14.346;2023-02-23T10:02:36;99870.91;;;8.40;100.00
29569;BME280;16501;51.462;14.346;2023-02-23T10:05:07;99888.13;;;8.66;100.00
29569;BME280;16501;51.462;14.346;2023-02-23T10:08:17;99894.00;;;8.68;100.00
29569;BME280;16501;51.462;14.346;2023-02-23T10:10:51;99887.34;;;8.57;100.00
29569;BME280;16501;51.462;14.346;2023-02-23T10:21:58;99873.16;;;8.88;100.00
29569;BME280;16501;51.462;14.346;2023-02-23T10:24:29;99863.63;;;9.04;100.00
29569;BME280;16501;51.462;14.346;2023-02-23T10:27:05;99889.94;;;9.31;100.00
29569;BME280;16501;51.462;14.346;2023-02-23T10:29:36;99851.41;;;9.25;100.00
29569;BME280;16501;51.462;14.346;2023-02-23T10:32:13;99875.84;;;9.49;100.00
29569;BME280;16501;51.462;14.346;2023-02-23T10:34:44;99890.84;;;9.61;100.00
29569;BME280;16501;51.462;14.346;2023-02-23T10:37:11;99885.22;;;9.70;100.00
29569;BME280;16501;51.462;14.346;2023-02-23T10:39:39;99831.13;;;9.40;100.00
29569;BME280;16501;51.462;14.346;2023-02-23T10:42:13;99866.09;;;9.69;100.00
29569;BME280;16501;51.462;14.346;2023-02-23T10:44:42;99876.69;;;9.89;100.00
29569;BME280;16501;51.462;14.346;2023-02-23T10:47:13;99881.44;;;9.97;100.00
29569;BME280;16501;51.462;14.346;2023-02-23T10:52:11;99878.41;;;10.25;100.00
29569;BME280;16501;51.462;14.346;2023-02-23T10:54:44;99873.91;;;10.28;100.00
29569;BME280;16501;51.462;14.346;2023-02-23T10:57:18;99861.41;;;10.29;100.00
29569;BME280;16501;51.462;14.346;2023-02-23T11:02:29;99855.31;;;10.15;100.00
29569;BME280;16501;51.462;14.346;2023-02-23T11:04:58;99871.31;;;10.39;100.00
29569;BME280;16501;51.462;14.346;2023-02-23T11:07:30;99838.81;;;10.17;100.00
29569;BME280;16501;51.462;14.346;2023-02-23T11:09:57;99872.47;;;10.32;100.00
29569;BME280;16501;51.462;14.346;2023-02-23T11:12:24;99873.59;;;10.26;100.00
29569;BME280;16501;51.462;14.346;2023-02-23T11:14:54;99868.81;;;10.17;100.00
29569;BME280;16501;51.462;14.346;2023-02-23T11:17:33;99861.59;;;10.10;100.00
29569;BME280;16501;51.462;14.346;2023-02-23T11:22:34;99820.00;;;9.79;100.00
29569;BME280;16501;51.462;14.346;2023-02-23T11:25:02;99854.03;;;10.02;100.00
29569;BME280;16501;51.462;14.346;2023-02-23T11:27:36;99799.19;;;9.71;100.00
29569;BME280;16501;51.462;14.346;2023-02-23T11:30:04;99852.78;;;10.03;100.00
29569;BME280;16501;51.462;14.346;2023-02-23T11:32:33;99851.81;;;10.06;100.00
29569;BME280;16501;51.462;14.346;2023-02-23T11:37:49;99836.25;;;10.05;100.00
29569;BME280;16501;51.462;14.346;2023-02-23T11:45:37;99820.91;;;10.15;100.00
29569;BME280;16501;51.462;14.346;2023-02-23T11:48:03;99816.09;;;10.15;100.00
29569;BME280;16501;51.462;14.346;2023-02-23T11:50:34;99818.75;;;10.34;100.00
29569;BME280;16501;51.462;14.346;2023-02-23T11:53:15;99783.25;;;10.31;100.00
29569;BME280;16501;51.462;14.346;2023-02-23T11:55:48;99785.97;;;10.55;100.00
29569;BME280;16501;51.462;14.346;2023-02-23T12:01:44;99808.38;;;10.85;100.00
29569;BME280;16501;51.462;14.346;2023-02-23T12:04:29;99800.56;;;10.89;100.00
29569;BME280;16501;51.462;14.346;2023-02-23T12:07:21;99807.66;;;11.05;100.00
29569;BME280;16501;51.462;14.346;2023-02-23T12:10:04;99793.91;;;11.07;100.00
29569;BME280;16501;51.462;14.346;2023-02-23T12:12:38;99811.25;;;11.41;99.21
29569;BME280;16501;51.462;14.346;2023-02-23T12:15:18;99811.09;;;11.50;98.99
29569;BME280;16501;51.462;14.346;2023-02-23T12:17:51;99798.38;;;11.34;96.62
29569;BME280;16501;51.462;14.346;2023-02-23T12:20:29;99794.47;;;11.46;97.86
29569;BME280;16501;51.462;14.346;2023-02-23T12:22:59;99799.94;;;11.56;98.40
29569;BME280;16501;51.462;14.346;2023-02-23T12:25:38;99803.94;;;11.69;96.42
29569;BME280;16501;51.462;14.346;2023-02-23T12:31:19;99785.34;;;11.72;96.31
29569;BME280;16501;51.462;14.346;2023-02-23T12:33:52;99773.00;;;11.64;96.45
29569;BME280;16501;51.462;14.346;2023-02-23T12:36:26;99800.66;;;11.92;97.24
29569;BME280;16501;51.462;14.346;2023-02-23T12:41:44;99774.28;;;11.68;96.24
29569;BME280;16501;51.462;14.346;2023-02-23T12:44:31;99782.53;;;11.72;94.52
29569;BME280;16501;51.462;14.346;2023-02-23T12:47:03;99763.44;;;11.56;95.72
29569;BME280;16501;51.462;14.346;2023-02-23T12:49:48;99763.59;;;11.46;94.85
29569;BME280;16501;51.462;14.346;2023-02-23T12:52:19;99784.84;;;11.53;96.57
29569;BME280;16501;51.462;14.346;2023-02-23T12:54:47;99761.41;;;11.36;98.09
29569;BME280;16501;51.462;14.346;2023-02-23T12:57:36;99779.78;;;11.37;98.76
29569;BME280;16501;51.462;14.346;2023-02-23T13:00:32;99790.25;;;11.36;99.17
29569;BME280;16501;51.462;14.346;2023-02-23T13:03:35;99787.28;;;11.25;99.29
29569;BME280;16501;51.462;14.346;2023-02-23T13:08:55;99784.59;;;11.16;100.00
29569;BME280;16501;51.462;14.346;2023-02-23T13:14:47;99782.78;;;11.12;100.00
29569;BME280;16501;51.462;14.346;2023-02-23T13:28:19;99756.63;;;10.86;100.00
29569;BME280;16501;51.462;14.346;2023-02-23T13:30:46;99776.72;;;10.99;100.00
29569;BME280;16501;51.462;14.346;2023-02-23T13:33:25;99781.00;;;10.94;100.00
29569;BME280;16501;51.462;14.346;2023-02-23T13:35:52;99770.59;;;10.80;100.00
29569;BME280;16501;51.462;14.346;2023-02-23T13:38:30;99754.25;;;10.79;100.00
29569;BME280;16501;51.462;14.346;2023-02-23T13:41:14;99759.44;;;10.86;100.00
29569;BME280;16501;51.462;14.346;2023-02-23T13:44:07;99750.56;;;10.72;100.00
29569;BME280;16501;51.462;14.346;2023-02-23T13:46:52;99769.59;;;10.83;100.00
29569;BME280;16501;51.462;14.346;2023-02-23T13:49:33;99763.22;;;10.83;100.00
29569;BME280;16501;51.462;14.346;2023-02-23T13:52:33;99767.00;;;10.80;100.00
29569;BME280;16501;51.462;14.346;2023-02-23T13:55:02;99740.44;;;10.60;100.00
29569;BME280;16501;51.462;14.346;2023-02-23T13:57:28;99758.28;;;10.78;100.00
29569;BME280;16501;51.462;14.346;2023-02-23T13:59:55;99762.66;;;10.79;100.00
29569;BME280;16501;51.462;14.346;2023-02-23T14:02:31;99766.72;;;10.78;100.00
29569;BME280;16501;51.462;14.346;2023-02-23T14:05:06;99760.81;;;10.75;100.00
29569;BME280;16501;51.462;14.346;2023-02-23T14:07:41;99748.94;;;10.66;100.00
29569;BME280;16501;51.462;14.346;2023-02-23T14:10:22;99762.06;;;10.74;100.00
29569;BME280;16501;51.462;14.346;2023-02-23T14:26:38;99727.22;;;10.61;100.00
29569;BME280;16501;51.462;14.346;2023-02-23T14:37:24;99747.66;;;10.82;100.00
29569;BME280;16501;51.462;14.346;2023-02-23T14:39:53;99731.16;;;10.69;100.00
29569;BME280;16501;51.462;14.346;2023-02-23T14:42:21;99757.03;;;10.79;100.00
29569;BME280;16501;51.462;14.346;2023-02-23T14:44:49;99743.63;;;10.68;100.00
29569;BME280;16501;51.462;14.346;2023-02-23T14:47:20;99750.16;;;10.80;100.00
29569;BME280;16501;51.462;14.346;2023-02-23T14:49:50;99756.56;;;10.80;100.00
29569;BME280;16501;51.462;14.346;2023-02-23T14:52:24;99734.22;;;10.71;100.00